createdAt,value
2019-02-23T00:00:48.876Z,0.50
2019-02-23T00:03:15.956Z,0.50
2019-02-23T00:05:43.118Z,0.40
2019-02-23T00:08:10.256Z,0.50
2019-02-23T00:10:37.376Z,0.40
2019-02-23T00:13:04.675Z,0.40
2019-02-23T00:15:31.877Z,0.40
2019-02-23T00:17:58.976Z,0.30
2019-02-23T00:20:26.115Z,0.30
2019-02-23T00:22:53.196Z,0.10
2019-02-23T00:25:20.336Z,0.10
2019-02-23T00:27:47.437Z,0.10
2019-02-23T00:30:14.646Z,0.00
2019-02-23T00:32:42.056Z,0.10
2019-02-23T00:35:09.238Z,0.00
2019-02-23T00:37:36.302Z,0.10
2019-02-23T00:40:05.116Z,-0.10
2019-02-23T00:42:32.217Z,-0.10
2019-02-23T00:44:59.313Z,0.00
2019-02-23T00:47:26.439Z,-0.20
2019-02-23T00:49:53.557Z,-0.20
2019-02-23T00:52:20.698Z,-0.30
2019-02-23T00:54:47.817Z,-0.30
2019-02-23T00:57:14.877Z,-0.40
2019-02-23T00:59:42.019Z,-0.40
2019-02-23T01:02:09.156Z,-0.40
2019-02-23T01:04:36.257Z,-0.50
2019-02-23T01:07:03.397Z,-0.50
2019-02-23T01:09:50.216Z,-0.50
2019-02-23T01:12:17.356Z,-0.40
2019-02-23T01:14:44.460Z,-0.60
2019-02-23T01:17:11.997Z,-0.60
2019-02-23T01:19:47.255Z,-0.50
2019-02-23T01:22:08.177Z,-0.60
2019-02-23T01:24:35.256Z,-0.60
2019-02-23T01:27:02.477Z,-0.70
2019-02-23T01:29:29.597Z,-0.70
2019-02-23T01:31:56.742Z,-0.80
2019-02-23T01:34:23.816Z,-0.90
2019-02-23T01:36:50.877Z,-1.00
2019-02-23T01:39:17.997Z,-1.00
2019-02-23T01:41:45.117Z,-1.10
2019-02-23T01:44:12.237Z,-1.10
2019-02-23T01:46:39.396Z,-1.20
2019-02-23T01:49:06.476Z,-1.30
2019-02-23T01:51:33.617Z,-1.40
2019-02-23T01:54:20.637Z,-1.50
2019-02-23T01:56:47.737Z,-1.20
2019-02-23T01:59:14.797Z,-1.40
2019-02-23T02:01:42.037Z,-1.40
2019-02-23T02:04:09.376Z,-1.50
2019-02-23T02:06:36.557Z,-1.60
2019-02-23T02:09:04.756Z,-1.60
2019-02-23T02:11:31.996Z,-1.70
2019-02-23T02:13:59.236Z,-1.80
2019-02-23T02:16:26.516Z,-1.80
2019-02-23T02:18:53.578Z,-1.80
2019-02-23T02:21:20.717Z,-1.80
2019-02-23T02:23:47.857Z,-1.90
2019-02-23T02:26:14.987Z,-1.90
2019-02-23T02:28:42.336Z,-1.90
2019-02-23T02:31:09.459Z,-1.80
2019-02-23T02:34:10.358Z,-1.80
2019-02-23T02:36:37.537Z,-1.80
2019-02-23T02:39:08.537Z,-1.80
2019-02-23T02:41:35.597Z,-1.80
2019-02-23T02:44:03.026Z,-1.90
2019-02-23T02:46:30.180Z,-1.90
2019-02-23T02:48:57.297Z,-1.90
2019-02-23T02:51:24.364Z,-2.00
2019-02-23T02:53:51.557Z,-2.00
2019-02-23T02:56:18.652Z,-1.90
2019-02-23T02:58:45.779Z,-1.90
2019-02-23T03:01:12.997Z,-2.00
2019-02-23T03:03:40.417Z,-1.90
2019-02-23T03:06:07.567Z,-2.10
2019-02-23T03:08:34.602Z,-2.10
2019-02-23T03:11:01.777Z,-2.20
2019-02-23T03:13:28.983Z,-2.10
2019-02-23T03:15:56.063Z,-2.10
2019-02-23T03:18:23.177Z,-2.20
2019-02-23T03:20:50.405Z,-2.10
2019-02-23T03:23:17.736Z,-2.10
2019-02-23T03:25:44.837Z,-2.10
2019-02-23T03:28:11.917Z,-2.10
2019-02-23T03:30:39.084Z,-2.10
2019-02-23T03:33:06.295Z,-2.10
2019-02-23T03:35:33.415Z,-2.10
2019-02-23T03:38:00.539Z,-2.10
2019-02-23T03:40:27.578Z,-2.10
2019-02-23T03:42:54.678Z,-2.10
2019-02-23T03:45:21.715Z,-2.20
2019-02-23T03:47:48.818Z,-2.20
2019-02-23T03:50:16.183Z,-2.30
2019-02-23T03:52:43.256Z,-2.30
2019-02-23T03:55:10.402Z,-2.30
2019-02-23T03:57:37.616Z,-2.30
2019-02-23T04:00:09.018Z,-2.30
2019-02-23T04:02:36.139Z,-2.20
2019-02-23T04:05:04.317Z,-2.20
2019-02-23T04:07:31.376Z,-2.20
2019-02-23T04:09:58.472Z,-2.20
2019-02-23T04:12:29.600Z,-2.20
2019-02-23T04:14:56.986Z,-2.20
2019-02-23T04:17:24.228Z,-2.20
2019-02-23T04:19:51.412Z,-2.20
2019-02-23T04:22:18.502Z,-2.20
2019-02-23T04:24:45.671Z,-2.30
2019-02-23T04:27:12.770Z,-2.30
2019-02-23T04:29:39.928Z,-2.30
2019-02-23T04:32:07.333Z,-2.30
2019-02-23T04:34:34.391Z,-2.40
2019-02-23T04:37:01.546Z,-2.40
2019-02-23T04:39:28.648Z,-2.50
2019-02-23T04:41:55.748Z,-2.50
2019-02-23T04:44:22.907Z,-2.40
2019-02-23T04:46:50.051Z,-2.40
2019-02-23T04:49:17.153Z,-2.40
2019-02-23T04:51:44.309Z,-2.50
2019-02-23T04:54:11.508Z,-2.60
2019-02-23T04:56:38.744Z,-2.60
2019-02-23T04:59:05.850Z,-2.60
2019-02-23T05:01:33.087Z,-2.60
2019-02-23T05:04:00.370Z,-2.60
2019-02-23T05:06:27.480Z,-2.60
2019-02-23T05:08:54.552Z,-2.60
2019-02-23T05:11:21.670Z,-2.70
2019-02-23T05:13:48.770Z,-2.70
2019-02-23T05:16:16.357Z,-2.80
2019-02-23T05:18:43.411Z,-2.80
2019-02-23T05:21:10.579Z,-2.90
2019-02-23T05:23:37.974Z,-2.90
2019-02-23T05:26:05.150Z,-2.90
2019-02-23T05:28:32.394Z,-2.80
2019-02-23T05:30:59.591Z,-2.80
2019-02-23T05:33:26.658Z,-2.90
2019-02-23T05:35:53.790Z,-2.90
2019-02-23T05:38:20.915Z,-2.90
2019-02-23T05:40:48.091Z,-2.90
2019-02-23T05:43:15.291Z,-2.90
2019-02-23T05:45:42.453Z,-2.90
2019-02-23T05:48:09.613Z,-2.90
2019-02-23T05:50:37.310Z,-2.90
2019-02-23T05:53:04.432Z,-2.90
2019-02-23T05:55:31.652Z,-2.90
2019-02-23T05:57:58.771Z,-2.90
2019-02-23T06:00:26.411Z,-2.90
2019-02-23T06:02:53.471Z,-3.00
2019-02-23T06:05:20.550Z,-2.90
2019-02-23T06:07:47.691Z,-2.90
2019-02-23T06:10:14.790Z,-2.90
2019-02-23T06:12:41.931Z,-2.90
2019-02-23T06:15:11.429Z,-2.90
2019-02-23T06:17:38.550Z,-2.90
2019-02-23T06:20:07.613Z,-2.90
2019-02-23T06:22:34.789Z,-2.90
2019-02-23T06:25:01.956Z,-2.80
2019-02-23T06:27:29.170Z,-2.80
2019-02-23T06:29:56.342Z,-2.70
2019-02-23T06:32:23.499Z,-2.70
2019-02-23T06:34:50.901Z,-2.60
2019-02-23T06:37:18.039Z,-2.60
2019-02-23T06:39:45.178Z,-2.60
2019-02-23T06:42:12.503Z,-2.50
2019-02-23T06:44:39.639Z,-2.40
2019-02-23T06:47:06.819Z,-2.30
2019-02-23T06:49:33.918Z,-2.20
2019-02-23T11:05:09.563Z,2.80
2019-02-23T11:07:36.718Z,3.00
2019-02-23T11:10:06.238Z,3.10
2019-02-23T11:12:33.459Z,3.10
2019-02-23T11:15:00.579Z,3.10
2019-02-23T11:17:27.718Z,3.10
2019-02-23T11:19:54.819Z,3.20
2019-02-23T11:22:21.918Z,3.40
2019-02-23T11:24:49.059Z,3.40
2019-02-23T11:27:16.219Z,3.50
2019-02-23T11:29:43.382Z,3.40
2019-02-23T11:32:10.569Z,3.40
2019-02-23T11:34:37.792Z,3.40
2019-02-23T11:37:04.976Z,3.50
2019-02-23T11:39:32.014Z,3.50
2019-02-23T11:41:59.179Z,3.60
2019-02-23T11:44:26.356Z,3.70
2019-02-23T11:47:00.670Z,3.80
2019-02-23T11:49:22.560Z,3.90
2019-02-23T11:51:49.715Z,3.90
2019-02-23T11:54:16.815Z,4.00
2019-02-23T11:56:43.916Z,4.00
2019-02-23T11:59:11.077Z,4.00
2019-02-23T12:01:38.333Z,4.10
2019-02-23T12:04:05.499Z,4.10
2019-02-23T12:06:32.591Z,4.00
2019-02-23T12:08:59.751Z,4.00
2019-02-23T12:11:26.951Z,4.00
2019-02-23T12:13:54.080Z,4.00
2019-02-23T12:16:21.220Z,4.10
2019-02-23T12:18:48.358Z,4.30
2019-02-23T12:21:15.384Z,4.30
2019-02-23T12:23:43.355Z,4.30
2019-02-23T12:26:10.474Z,4.40
2019-02-23T12:28:37.668Z,4.40
2019-02-23T12:31:04.714Z,4.30
2019-02-23T12:33:31.862Z,4.30
2019-02-23T12:35:59.002Z,4.20
2019-02-23T12:38:26.083Z,4.20
2019-02-23T12:40:53.146Z,4.20
2019-02-23T12:43:20.302Z,4.20
2019-02-23T12:46:07.142Z,4.10
2019-02-23T12:48:34.186Z,4.10
2019-02-23T12:51:01.255Z,4.20
2019-02-23T12:53:28.387Z,4.20
2019-02-23T12:55:55.567Z,4.30
2019-02-23T12:58:22.598Z,4.40
2019-02-23T13:00:49.728Z,4.20
2019-02-23T13:03:16.927Z,4.20
2019-02-23T13:05:44.119Z,4.20
2019-02-23T13:08:11.199Z,4.30
2019-02-23T13:10:38.884Z,4.30
2019-02-23T13:13:26.064Z,4.40
2019-02-23T13:16:07.625Z,4.50
2019-02-23T13:19:05.308Z,4.60
2019-02-23T13:21:56.204Z,4.50
2019-02-23T13:25:02.168Z,4.60
2019-02-23T13:27:46.868Z,4.60
2019-02-23T13:30:45.049Z,4.60
2019-02-23T13:33:23.351Z,4.60
2019-02-23T13:36:13.598Z,4.30
2019-02-23T13:39:10.281Z,4.10
2019-02-23T13:42:09.759Z,4.00
2019-02-23T13:45:18.282Z,3.80
2019-02-23T13:48:11.914Z,3.70
2019-02-23T13:51:08.693Z,3.70
2019-02-23T13:54:08.859Z,3.70
2019-02-23T13:57:04.959Z,3.70
2019-02-23T14:00:29.539Z,3.90
2019-02-23T14:03:36.541Z,4.00
2019-02-23T14:06:29.655Z,4.10
2019-02-23T14:09:20.517Z,4.20
2019-02-23T14:12:25.107Z,4.30
2019-02-23T14:15:18.812Z,4.30
2019-02-23T14:18:02.851Z,4.20
2019-02-23T14:20:47.497Z,4.10
2019-02-23T14:23:32.054Z,4.10
2019-02-23T14:26:22.233Z,4.00
2019-02-23T14:29:28.767Z,3.80
2019-02-23T14:32:13.467Z,3.90
2019-02-23T14:35:14.407Z,3.90
2019-02-23T14:37:49.767Z,3.90
2019-02-23T14:40:31.462Z,3.90
2019-02-23T14:43:19.413Z,3.90
2019-02-23T14:46:10.005Z,3.90
2019-02-23T14:49:08.212Z,3.90
2019-02-23T14:52:10.905Z,3.80
2019-02-23T14:54:49.245Z,3.80
2019-02-23T14:57:21.784Z,3.80
2019-02-23T14:59:57.064Z,3.80
2019-02-23T15:02:38.709Z,3.70
2019-02-23T15:05:41.670Z,3.70
2019-02-23T15:08:20.450Z,3.60
2019-02-23T15:11:27.908Z,3.60
2019-02-23T15:14:18.489Z,3.60
2019-02-23T15:17:16.830Z,3.60
2019-02-23T15:19:51.891Z,3.60
2019-02-23T15:22:53.275Z,3.60
2019-02-23T15:25:49.555Z,3.60
2019-02-23T15:28:37.852Z,3.60
2019-02-23T15:31:17.015Z,3.50
2019-02-23T15:33:55.875Z,3.50
2019-02-23T15:36:40.535Z,3.40
2019-02-23T15:39:46.758Z,3.50
2019-02-23T15:42:22.306Z,3.50
2019-02-23T15:45:06.930Z,3.40
2019-02-23T15:48:08.344Z,3.40
2019-02-23T15:50:35.572Z,3.40
2019-02-23T15:53:02.823Z,3.30
2019-02-23T15:55:30.069Z,3.30
2019-02-23T15:57:57.195Z,3.30
2019-02-23T16:00:24.498Z,3.20
2019-02-23T16:02:51.577Z,3.20
2019-02-23T16:05:18.740Z,3.10
2019-02-23T16:07:45.819Z,3.00
2019-02-23T16:10:13.420Z,3.00
2019-02-23T16:12:40.762Z,2.90
2019-02-23T16:15:07.996Z,2.90
2019-02-23T16:17:35.077Z,2.80
2019-02-23T16:20:02.257Z,2.70
2019-02-23T16:22:29.396Z,2.70
2019-02-23T16:24:56.438Z,2.60
2019-02-23T16:27:23.534Z,2.50
2019-02-23T16:29:50.701Z,2.50
2019-02-23T16:32:17.794Z,2.40
2019-02-23T16:34:44.915Z,2.30
2019-02-23T16:37:12.034Z,2.20
2019-02-23T16:39:40.595Z,2.20
2019-02-23T16:42:07.816Z,2.10
2019-02-23T16:44:34.935Z,2.00
2019-02-23T16:47:02.076Z,1.90
2019-02-23T16:49:29.176Z,1.80
2019-02-23T16:51:56.194Z,1.70
2019-02-23T16:54:23.335Z,1.70
2019-02-23T16:56:50.434Z,1.60
2019-02-23T16:59:17.555Z,1.60
2019-02-23T17:01:44.674Z,1.60
2019-02-23T17:04:11.842Z,1.60
2019-02-23T17:06:38.901Z,1.60
2019-02-23T17:09:06.275Z,1.60
2019-02-23T17:11:33.497Z,1.50
2019-02-23T17:14:00.661Z,1.50
2019-02-23T17:16:27.856Z,1.50
2019-02-23T17:18:54.974Z,1.50
2019-02-23T17:21:22.081Z,1.40
2019-02-23T17:23:49.299Z,1.30
2019-02-23T17:26:16.355Z,1.20
2019-02-23T17:28:43.436Z,1.10
2019-02-23T17:31:10.614Z,1.00
2019-02-23T17:33:37.735Z,0.90
2019-02-23T17:36:04.815Z,0.90
2019-02-23T17:38:31.974Z,0.90
2019-02-23T17:40:59.111Z,0.90
2019-02-23T17:43:26.273Z,0.80
2019-02-23T17:45:53.554Z,0.90
2019-02-23T17:48:20.609Z,0.90
2019-02-23T17:50:47.808Z,1.00
2019-02-23T17:53:14.992Z,1.00
2019-02-23T17:55:42.149Z,1.00
2019-02-23T17:58:09.209Z,1.10
2019-02-23T18:00:36.329Z,1.10
2019-02-23T18:03:03.828Z,1.00
2019-02-23T18:05:30.990Z,0.90
2019-02-23T18:07:58.128Z,1.00
2019-02-23T18:10:25.189Z,0.80
2019-02-23T18:12:52.308Z,0.80
2019-02-23T18:15:19.449Z,0.80
2019-02-23T18:17:46.611Z,0.70
2019-02-23T18:20:13.748Z,0.60
2019-02-23T18:22:40.890Z,0.40
2019-02-23T18:25:08.509Z,0.30
2019-02-23T18:27:35.612Z,0.30
2019-02-23T18:30:11.332Z,0.30
2019-02-23T18:32:34.866Z,0.10
2019-02-23T18:35:01.976Z,0.10
2019-02-23T18:37:29.086Z,0.00
2019-02-23T18:39:56.168Z,-0.10
2019-02-23T18:42:23.226Z,-0.20
2019-02-23T18:44:50.366Z,-0.40
2019-02-23T18:47:17.446Z,-0.40
2019-02-23T18:49:44.804Z,-0.60
2019-02-23T18:52:12.004Z,-0.80
2019-02-23T18:54:39.404Z,-1.00
2019-02-23T18:57:06.580Z,-1.10
2019-02-23T18:59:33.714Z,-1.30
2019-02-23T19:02:00.776Z,-1.40
2019-02-23T19:04:27.912Z,-1.60
2019-02-23T19:06:55.021Z,-1.70
2019-02-23T19:09:22.171Z,-1.80
2019-02-23T19:11:49.312Z,-1.90
2019-02-23T19:14:16.411Z,-2.00
2019-02-23T19:16:43.512Z,-2.10
2019-02-23T19:19:10.572Z,-2.10
2019-02-23T19:21:37.692Z,-2.20
2019-02-23T19:24:04.810Z,-2.30
2019-02-23T19:26:38.058Z,-2.20
2019-02-23T19:29:01.012Z,-2.20
2019-02-23T19:31:28.151Z,-2.20
2019-02-23T19:33:55.251Z,-2.10
2019-02-23T19:36:22.431Z,-2.20
2019-02-23T19:38:49.552Z,-2.20
2019-02-23T19:41:16.742Z,-2.20
2019-02-23T19:43:43.873Z,-2.20
2019-02-23T19:46:10.972Z,-2.10
2019-02-23T19:48:38.111Z,-2.00
2019-02-23T19:51:08.093Z,-2.00
2019-02-23T19:53:35.532Z,-1.90
2019-02-23T19:56:02.734Z,-1.90
2019-02-23T19:58:29.852Z,-1.90
2019-02-23T20:00:57.036Z,-1.90
2019-02-23T20:03:24.111Z,-1.80
2019-02-23T20:05:51.212Z,-1.60
2019-02-23T20:08:18.372Z,-1.60
2019-02-23T20:10:45.472Z,-1.60
2019-02-23T20:13:12.612Z,-1.60
2019-02-23T20:15:39.694Z,-1.60
2019-02-23T20:18:06.832Z,-1.60
2019-02-23T20:20:33.932Z,-1.70
2019-02-23T20:23:01.092Z,-1.60
2019-02-23T20:25:28.171Z,-1.60
2019-02-23T20:27:55.311Z,-1.50
2019-02-23T20:30:22.487Z,-1.50
2019-02-23T20:32:49.633Z,-1.50
2019-02-23T20:35:17.592Z,-1.40
2019-02-23T20:37:44.771Z,-1.40
2019-02-23T20:40:11.892Z,-1.40
2019-02-23T20:42:39.051Z,-1.50
2019-02-23T20:45:08.212Z,-1.50
2019-02-23T20:47:35.392Z,-1.50
2019-02-23T20:50:08.034Z,-1.60
2019-02-23T20:52:35.235Z,-1.60
2019-02-23T20:55:02.958Z,-1.60
2019-02-23T20:57:30.217Z,-1.60
2019-02-23T20:59:57.311Z,-1.60
2019-02-23T21:02:24.491Z,-1.60
2019-02-23T21:04:51.591Z,-1.60
2019-02-23T21:07:18.874Z,-1.60
2019-02-23T21:09:46.112Z,-1.50
2019-02-23T21:12:13.211Z,-1.50
2019-02-23T21:14:40.312Z,-1.50
2019-02-23T21:17:07.691Z,-1.50
2019-02-23T21:19:34.731Z,-1.70
2019-02-23T21:22:01.823Z,-1.80
2019-02-23T21:24:28.971Z,-1.90
2019-02-23T21:26:56.053Z,-2.00
2019-02-23T21:29:23.212Z,-2.00
2019-02-23T21:31:50.291Z,-2.10
2019-02-23T21:34:17.475Z,-2.10
2019-02-23T21:36:44.671Z,-2.10
2019-02-23T21:39:11.834Z,-1.90
2019-02-23T21:41:39.031Z,-1.90
2019-02-23T21:44:06.192Z,-1.80
2019-02-23T21:46:33.311Z,-1.80
2019-02-23T21:49:00.452Z,-1.80
2019-02-23T21:51:27.572Z,-1.90
2019-02-23T21:53:54.652Z,-1.80
2019-02-23T21:56:22.072Z,-1.70
2019-02-23T21:58:49.292Z,-1.60
2019-02-23T22:01:16.433Z,-1.50
2019-02-23T22:03:43.553Z,-1.50
2019-02-23T22:06:10.652Z,-1.40
2019-02-23T22:08:38.073Z,-1.40
2019-02-23T22:11:05.220Z,-1.40
2019-02-23T22:13:32.305Z,-1.50
2019-02-23T22:15:59.758Z,-1.60
2019-02-23T22:18:26.918Z,-1.60
2019-02-23T22:20:54.056Z,-1.70
2019-02-23T22:23:21.198Z,-1.70
2019-02-23T22:25:48.379Z,-1.70
2019-02-23T22:28:15.639Z,-1.80
2019-02-23T22:30:42.694Z,-1.90
2019-02-23T22:33:09.980Z,-2.00
2019-02-23T22:35:37.118Z,-2.10
2019-02-23T22:38:04.209Z,-2.20
2019-02-23T22:40:31.234Z,-2.30
2019-02-23T22:42:58.390Z,-2.30
2019-02-23T22:45:25.532Z,-2.30
2019-02-23T22:47:52.689Z,-2.30
2019-02-23T22:50:19.789Z,-2.20
2019-02-23T22:52:46.949Z,-2.20
2019-02-23T22:55:14.068Z,-2.30
2019-02-23T22:57:41.216Z,-2.30
2019-02-23T23:00:14.000Z,-2.30
2019-02-23T23:02:41.688Z,-2.30
2019-02-23T23:05:09.292Z,-2.30
2019-02-23T23:07:36.688Z,-2.30
2019-02-23T23:10:06.428Z,-2.30
2019-02-23T23:12:53.308Z,-2.30
2019-02-23T23:15:20.511Z,-2.20
2019-02-23T23:17:47.610Z,-2.30
2019-02-23T23:20:14.752Z,-2.30
2019-02-23T23:22:41.811Z,-2.20
2019-02-23T23:25:08.931Z,-2.20
2019-02-23T23:27:36.090Z,-2.20
2019-02-23T23:30:06.835Z,-2.20
2019-02-23T23:32:34.351Z,-2.20
2019-02-23T23:35:01.454Z,-2.20
2019-02-23T23:37:28.890Z,-2.20
2019-02-23T23:39:55.990Z,-2.10
2019-02-23T23:42:23.169Z,-2.10
2019-02-23T23:44:50.292Z,-2.10
2019-02-23T23:47:17.477Z,-2.00
2019-02-23T23:49:44.570Z,-2.00
2019-02-23T23:52:11.690Z,-2.00
2019-02-23T23:54:38.871Z,-2.10
2019-02-23T23:57:06.050Z,-2.10
2019-02-23T23:59:33.211Z,-2.20
